Saltar para o conteúdo principal

Oeiras / Vila Fria (CMO)

ID 6215360 · 38.7240, -9.2939 mapa

Última leitura · 2026-05-09 19:00 (Europe/Lisbon)

Temperatura
15.7 °C
Humidade
82 %
Pressão
1,006.9 hPa
Precipitação
0.0 mm
Radiação
1,027 W/m²
Velocidade do vento
23.4 km/h
Direcção do vento
SW · Sudoeste

Histórico de 24 horas

Hora (Europe/Lisbon) Temperatura Humidade Pressão Chuva Vento Direcção
2026-05-09 19:00 15.7 °C 82 % 1,006.9 0.0 mm 23.4 km/h SW
2026-05-09 18:00 14.7 °C 83 % 1,006.6 0.2 mm 16.2 km/h SW
2026-05-09 17:00 13.9 °C 85 % 1,006.4 1.2 mm 19.4 km/h SW
2026-05-09 16:00 16.2 °C 81 % 1,005.4 2.1 mm 25.6 km/h SW
2026-05-09 15:00 17.1 °C 79 % 1,004.9 0.0 mm 29.9 km/h SW
2026-05-09 14:00 16.5 °C 79 % 1,004.8 0.0 mm 28.4 km/h SW
2026-05-09 13:00 16.4 °C 75 % 1,004.4 0.1 mm 30.6 km/h SW
2026-05-09 12:00 15.9 °C 78 % 1,003.9 0.0 mm 32.4 km/h SW
2026-05-09 11:00 15.1 °C 83 % 1,003.5 0.0 mm 24.1 km/h SW
2026-05-09 10:00 13.5 °C 99 % 1,003.2 0.1 mm 16.9 km/h S
2026-05-09 09:00 12.5 °C 100 % 1,003.3 0.5 mm 10.4 km/h S
2026-05-09 08:00 11.7 °C 100 % 1,003.2 0.1 mm 7.6 km/h E
2026-05-09 07:00 11.4 °C 100 % 1,003.3 0.7 mm 4.3 km/h SE
2026-05-09 06:00 11.1 °C 100 % 1,003.4 4.8 mm 16.9 km/h SW
2026-05-09 05:00 11.9 °C 100 % 1,003.8 4.8 mm 10.8 km/h S
2026-05-09 04:00 12.4 °C 100 % 1,004.2 1.7 mm 14.8 km/h SE
2026-05-09 03:00 11.8 °C 99 % 1,004.7 14.1 mm 25.9 km/h S
2026-05-09 02:00 11.8 °C 96 % 1,005.7 1.9 mm 10.4 km/h SE
2026-05-09 01:00 13.7 °C 91 % 1,005.5 4.7 mm 15.8 km/h S
2026-05-09 00:00 14.6 °C 85 % 1,005.5 0.0 mm 31.0 km/h S
2026-05-08 23:00 15.1 °C 82 % 1,005.2 0.0 mm 27.7 km/h S
2026-05-08 22:00 15.1 °C 82 % 1,005.1 0.0 mm 19.4 km/h SE
2026-05-08 21:00 15.8 °C 78 % 1,005.4 0.0 mm 18.4 km/h SE
2026-05-08 20:00 15.6 °C 81 % 1,005.8 0.0 mm 20.9 km/h S